createdAt,value
2019-04-28T00:00:41.169Z,7.70
2019-04-28T00:03:07.516Z,7.80
2019-04-28T00:05:33.737Z,7.80
2019-04-28T00:08:01.163Z,7.80
2019-04-28T00:10:27.811Z,7.80
2019-04-28T00:12:54.064Z,7.80
2019-04-28T00:15:20.883Z,7.90
2019-04-28T00:17:47.160Z,7.80
2019-04-28T00:20:18.316Z,7.90
2019-04-28T00:23:04.177Z,7.80
2019-04-28T00:25:33.061Z,7.80
2019-04-28T00:27:59.353Z,7.70
2019-04-28T00:30:25.698Z,7.60
2019-04-28T00:32:51.957Z,7.60
2019-04-28T00:35:18.182Z,7.50
2019-04-28T00:37:44.422Z,7.50
2019-04-28T00:40:31.639Z,7.50
2019-04-28T00:42:57.970Z,7.40
2019-04-28T00:45:24.245Z,7.40
2019-04-28T00:47:51.107Z,7.40
2019-04-28T00:50:17.483Z,7.40
2019-04-28T00:52:43.735Z,7.30
2019-04-28T00:55:11.035Z,7.30
2019-04-28T00:57:37.316Z,7.30
2019-04-28T01:00:06.284Z,7.20
2019-04-28T01:02:41.323Z,7.20
2019-04-28T01:05:27.578Z,7.10
2019-04-28T01:07:53.814Z,7.20
2019-04-28T01:10:41.854Z,7.10
2019-04-28T01:13:08.637Z,7.10
2019-04-28T01:15:45.781Z,7.10
2019-04-28T01:18:25.697Z,7.10
2019-04-28T01:20:52.114Z,7.20
2019-04-28T01:23:20.267Z,7.20
2019-04-28T01:25:46.498Z,7.20
2019-04-28T01:28:12.735Z,7.30
2019-04-28T01:30:43.719Z,7.30
2019-04-28T01:33:29.490Z,7.30
2019-04-28T01:35:55.961Z,7.30
2019-04-28T01:38:22.199Z,7.30
2019-04-28T01:40:49.955Z,7.40
2019-04-28T01:43:16.423Z,7.40
2019-04-28T01:45:42.650Z,7.40
2019-04-28T01:48:10.041Z,7.40
2019-04-28T01:50:36.419Z,7.40
2019-04-28T01:53:02.668Z,7.50
2019-04-28T01:55:29.618Z,7.50
2019-04-28T01:57:56.060Z,7.50
2019-04-28T02:00:25.441Z,7.50
2019-04-28T02:02:50.853Z,7.50
2019-04-28T02:05:17.282Z,7.50
2019-04-28T02:07:43.520Z,7.50
2019-04-28T02:10:10.483Z,7.40
2019-04-28T02:12:36.787Z,7.50
2019-04-28T02:15:07.679Z,7.40
2019-04-28T02:17:33.919Z,7.40
2019-04-28T02:20:00.775Z,7.40
2019-04-28T02:22:31.775Z,7.30
2019-04-28T02:24:58.148Z,7.30
2019-04-28T02:27:24.634Z,7.30
2019-04-28T02:29:50.884Z,7.30
2019-04-28T02:32:20.688Z,7.30
2019-04-28T02:34:45.564Z,7.30
2019-04-28T02:37:11.780Z,7.30
2019-04-28T02:39:40.640Z,7.30
2019-04-28T02:42:06.264Z,7.30
2019-04-28T02:44:35.085Z,7.20
2019-04-28T02:47:01.110Z,7.20
2019-04-28T02:49:32.131Z,7.20
2019-04-28T02:52:03.317Z,7.20
2019-04-28T02:54:30.490Z,7.20
2019-04-28T02:56:56.829Z,7.20
2019-04-28T02:59:23.058Z,7.20
2019-04-28T03:01:50.884Z,7.20
2019-04-28T03:04:20.129Z,7.20
2019-04-28T03:06:47.690Z,7.20
2019-04-28T03:09:13.927Z,7.20
2019-04-28T03:11:41.080Z,7.20
2019-04-28T03:14:11.057Z,7.20
2019-04-28T03:16:36.472Z,7.20
2019-04-28T03:19:02.981Z,7.20
2019-04-28T03:21:31.275Z,7.20
2019-04-28T03:23:57.587Z,7.10
2019-04-28T03:26:25.710Z,7.10
2019-04-28T03:29:10.798Z,7.00
2019-04-28T03:32:14.929Z,7.00
2019-04-28T03:34:13.373Z,7.00
2019-04-28T03:36:40.846Z,6.90
2019-04-28T03:39:07.441Z,6.90
2019-04-28T03:41:33.682Z,6.90
2019-04-28T03:44:00.585Z,6.80
2019-04-28T03:46:30.431Z,6.80
2019-04-28T03:48:56.870Z,6.80
2019-04-28T03:51:25.061Z,6.80
2019-04-28T03:53:51.599Z,6.70
2019-04-28T03:56:17.874Z,6.70
2019-04-28T03:58:44.113Z,6.70
2019-04-28T04:01:10.920Z,6.60
2019-04-28T04:03:37.372Z,6.60
2019-04-28T04:06:03.711Z,6.60
2019-04-28T04:08:30.986Z,6.50
2019-04-28T04:11:12.064Z,6.50
2019-04-28T04:13:41.560Z,6.50
2019-04-28T04:16:12.673Z,6.50
2019-04-28T04:18:40.977Z,6.40
2019-04-28T04:21:07.287Z,6.40
2019-04-28T04:23:33.554Z,6.40
2019-04-28T04:26:01.603Z,6.40
2019-04-28T04:28:30.265Z,6.40
2019-04-28T04:30:56.069Z,6.40
2019-04-28T04:33:22.312Z,6.40
2019-04-28T04:35:51.015Z,6.40
2019-04-28T04:38:17.930Z,6.40
2019-04-28T04:40:44.180Z,6.40
2019-04-28T04:43:11.256Z,6.40
2019-04-28T04:45:40.276Z,6.40
2019-04-28T04:48:05.783Z,6.40
2019-04-28T04:50:32.022Z,6.40
2019-04-28T04:52:58.257Z,6.40
2019-04-28T04:55:24.506Z,6.50
2019-04-28T04:57:50.806Z,6.50
2019-04-28T05:00:34.139Z,6.60
2019-04-28T05:03:07.962Z,6.60
2019-04-28T05:05:40.362Z,6.60
2019-04-28T05:08:06.716Z,6.70
2019-04-28T05:10:32.940Z,6.80
2019-04-28T05:13:00.246Z,6.90
2019-04-28T05:15:26.552Z,7.00
2019-04-28T05:17:52.846Z,7.20
2019-04-28T05:20:20.141Z,7.30
2019-04-28T05:22:50.254Z,7.40
2019-04-28T05:25:20.301Z,7.50
2019-04-28T05:27:46.581Z,7.80
2019-04-28T05:30:14.109Z,8.10
2019-04-28T05:32:45.549Z,8.40
2019-04-28T05:35:10.229Z,8.70
2019-04-28T05:37:36.906Z,9.00
2019-04-28T05:40:04.660Z,9.20
2019-04-28T05:42:30.911Z,9.40
2019-04-28T05:44:57.143Z,9.40
2019-04-28T05:47:23.409Z,9.50
2019-04-28T05:50:03.685Z,9.70
2019-04-28T05:52:31.817Z,9.90
2019-04-28T05:54:59.973Z,10.50
2019-04-28T05:57:28.128Z,11.20
2019-04-28T06:00:01.165Z,12.00
2019-04-28T06:02:32.081Z,12.80
2019-04-28T06:04:59.928Z,13.70
2019-04-28T06:07:28.265Z,14.60
2019-04-28T06:09:55.187Z,15.40
2019-04-28T06:12:21.726Z,16.10
2019-04-28T06:14:47.954Z,16.70
2019-04-28T06:17:16.000Z,17.30
2019-04-28T06:19:42.266Z,17.70
2019-04-28T06:22:08.559Z,18.10
2019-04-28T06:24:34.812Z,18.40
2019-04-28T06:27:01.036Z,18.50
2019-04-28T06:29:27.329Z,18.60
2019-04-28T06:31:53.592Z,18.40
2019-04-28T06:34:19.809Z,18.20
2019-04-28T06:36:46.085Z,18.10
2019-04-28T06:39:12.318Z,17.90
2019-04-28T06:41:38.578Z,17.70
2019-04-28T06:44:04.936Z,17.60
2019-04-28T06:46:31.161Z,17.50
2019-04-28T06:48:57.414Z,17.40
2019-04-28T06:51:23.678Z,17.20
2019-04-28T06:53:49.945Z,16.80
2019-04-28T06:56:16.180Z,16.50
2019-04-28T06:58:42.402Z,16.00
2019-04-28T07:01:08.949Z,15.70
2019-04-28T07:03:35.176Z,15.40
2019-04-28T07:06:01.509Z,15.10
2019-04-28T07:08:27.762Z,14.90
2019-04-28T07:10:54.050Z,14.80
2019-04-28T07:13:20.691Z,14.70
2019-04-28T07:15:47.151Z,14.50
2019-04-28T07:18:13.436Z,14.30
2019-04-28T07:20:41.618Z,14.00
2019-04-28T07:23:09.754Z,13.70
2019-04-28T07:25:35.994Z,13.40
2019-04-28T07:28:02.982Z,13.00
2019-04-28T07:30:29.300Z,12.70
2019-04-28T07:32:55.525Z,12.40
2019-04-28T07:35:21.865Z,12.50
2019-04-28T07:37:48.288Z,12.70
2019-04-28T07:40:14.824Z,13.20
2019-04-28T07:42:41.157Z,13.60
2019-04-28T07:45:07.861Z,14.00
2019-04-28T07:47:34.143Z,14.40
2019-04-28T07:50:00.354Z,14.70
2019-04-28T07:52:28.510Z,15.10
2019-04-28T07:54:54.737Z,15.70
2019-04-28T07:57:20.963Z,16.20
2019-04-28T07:59:47.218Z,16.60
2019-04-28T08:02:16.595Z,16.70
2019-04-28T08:04:42.854Z,17.00
2019-04-28T08:07:09.194Z,17.30
2019-04-28T08:09:35.460Z,17.50
2019-04-28T08:12:01.692Z,17.40
2019-04-28T08:14:27.924Z,17.30
2019-04-28T08:16:54.187Z,17.00
2019-04-28T08:19:20.449Z,16.80
2019-04-28T08:21:46.697Z,16.70
2019-04-28T08:24:13.044Z,16.70
2019-04-28T08:26:39.277Z,16.70
2019-04-28T08:29:05.748Z,16.60
2019-04-28T08:31:41.628Z,16.50
2019-04-28T08:34:10.004Z,16.30
2019-04-28T08:36:36.344Z,16.20
2019-04-28T08:39:05.694Z,16.20
2019-04-28T08:41:32.013Z,16.10
2019-04-28T08:43:58.292Z,16.20
2019-04-28T08:46:25.294Z,16.30
2019-04-28T08:48:51.745Z,16.60
2019-04-28T08:51:17.979Z,16.60
2019-04-28T08:53:44.268Z,16.70
2019-04-28T08:56:11.352Z,16.80
2019-04-28T08:58:37.871Z,16.50
2019-04-28T09:01:04.131Z,16.40
2019-04-28T09:03:30.377Z,16.30
2019-04-28T09:05:56.870Z,16.20
2019-04-28T09:08:23.114Z,16.10
2019-04-28T09:10:49.451Z,15.90
2019-04-28T09:13:32.250Z,15.60
2019-04-28T09:16:04.109Z,15.30
2019-04-28T09:18:30.456Z,14.90
2019-04-28T09:20:56.701Z,14.80
2019-04-28T09:23:22.967Z,14.80
2019-04-28T09:25:49.251Z,15.00
2019-04-28T09:28:15.497Z,15.10
2019-04-28T09:30:41.761Z,15.30
2019-04-28T09:33:08.028Z,15.60
2019-04-28T09:35:34.293Z,15.80
2019-04-28T09:38:00.543Z,16.00
2019-04-28T09:40:26.786Z,16.00
2019-04-28T09:43:03.988Z,15.90
2019-04-28T09:45:32.231Z,16.10
2019-04-28T09:47:58.489Z,16.10
2019-04-28T09:50:24.726Z,16.10
2019-04-28T09:52:51.074Z,16.00
2019-04-28T09:55:17.311Z,16.00
2019-04-28T09:57:43.576Z,15.90
2019-04-28T10:00:10.857Z,15.80
2019-04-28T10:02:37.089Z,15.90
2019-04-28T10:05:07.818Z,16.00
2019-04-28T10:07:34.273Z,16.10
2019-04-28T10:10:00.497Z,16.20
2019-04-28T10:12:27.540Z,16.20
2019-04-28T10:14:53.822Z,16.30
2019-04-28T10:17:20.288Z,16.40
2019-04-28T10:19:46.531Z,16.50
2019-04-28T10:22:12.748Z,16.40
2019-04-28T10:24:39.016Z,16.10
2019-04-28T10:27:06.902Z,15.90
2019-04-28T10:29:33.159Z,15.60
2019-04-28T10:31:59.432Z,15.30
2019-04-28T10:34:25.738Z,15.10
2019-04-28T10:36:51.973Z,15.00
2019-04-28T10:39:29.330Z,14.90
2019-04-28T10:41:55.645Z,15.10
2019-04-28T10:44:22.843Z,15.20
2019-04-28T10:46:49.935Z,15.20
2019-04-28T10:49:16.367Z,15.10
2019-04-28T10:51:42.720Z,14.90
2019-04-28T10:54:10.983Z,14.80
2019-04-28T10:56:37.224Z,14.60
2019-04-28T10:59:03.970Z,14.50
2019-04-28T11:01:30.198Z,14.40
2019-04-28T11:04:04.296Z,14.30
2019-04-28T11:06:30.534Z,14.40
2019-04-28T11:09:04.665Z,14.50
2019-04-28T11:11:31.031Z,14.70
2019-04-28T11:13:57.386Z,14.90
2019-04-28T11:16:25.647Z,15.10
2019-04-28T11:18:52.058Z,15.30
2019-04-28T11:21:18.352Z,15.30
2019-04-28T11:23:44.589Z,15.30
2019-04-28T11:26:10.860Z,15.10
2019-04-28T11:28:37.928Z,14.90
2019-04-28T11:31:04.520Z,14.80
2019-04-28T11:33:41.653Z,14.60
2019-04-28T11:36:08.003Z,14.40
2019-04-28T11:38:34.253Z,14.20
2019-04-28T11:41:00.499Z,14.00
2019-04-28T11:43:26.769Z,13.90
2019-04-28T11:45:53.006Z,13.80
2019-04-28T11:48:19.266Z,13.80
2019-04-28T11:50:45.503Z,13.80
2019-04-28T11:53:11.769Z,13.80
2019-04-28T11:55:38.054Z,13.80
2019-04-28T11:58:04.426Z,13.80
2019-04-28T12:00:32.721Z,13.70
2019-04-28T12:02:58.956Z,13.60
2019-04-28T12:05:34.423Z,13.50
2019-04-28T12:07:55.326Z,13.40
2019-04-28T12:10:23.476Z,13.30
2019-04-28T12:13:03.448Z,13.20
2019-04-28T12:15:31.595Z,13.10
2019-04-28T12:18:05.684Z,13.10
2019-04-28T12:20:31.951Z,13.10
2019-04-28T12:23:00.085Z,13.00
2019-04-28T12:25:26.354Z,13.00
2019-04-28T12:27:52.696Z,13.00
2019-04-28T12:30:18.951Z,13.00
2019-04-28T12:32:45.223Z,13.10
2019-04-28T12:35:11.590Z,13.10
2019-04-28T12:37:37.829Z,13.20
2019-04-28T12:40:05.470Z,13.20
2019-04-28T12:42:31.735Z,13.20
2019-04-28T12:44:57.976Z,13.20
2019-04-28T12:47:24.216Z,13.20
2019-04-28T12:50:02.230Z,13.20
2019-04-28T12:52:28.585Z,13.10
2019-04-28T12:54:54.905Z,13.00
2019-04-28T12:57:21.276Z,13.00
2019-04-28T12:59:49.688Z,12.80
2019-04-28T13:02:35.777Z,12.80
2019-04-28T13:05:05.725Z,12.80
2019-04-28T13:07:32.116Z,12.70
2019-04-28T13:09:58.396Z,12.70
2019-04-28T13:12:24.711Z,12.70
2019-04-28T13:14:51.051Z,12.60
2019-04-28T13:17:37.173Z,12.50
2019-04-28T13:20:04.510Z,12.50
2019-04-28T13:22:30.762Z,12.40
2019-04-28T13:24:57.093Z,12.40
2019-04-28T13:27:23.352Z,12.40
2019-04-28T13:29:49.705Z,12.40
2019-04-28T13:32:15.949Z,12.40
2019-04-28T13:34:45.381Z,12.40
2019-04-28T13:37:11.620Z,12.50
2019-04-28T13:39:48.761Z,12.50
2019-04-28T13:42:15.032Z,12.60
2019-04-28T13:44:49.105Z,12.70
2019-04-28T13:47:15.440Z,12.80
2019-04-28T13:49:49.386Z,12.90
2019-04-28T13:52:15.892Z,13.00
2019-04-28T13:54:42.148Z,13.00
2019-04-28T13:57:08.426Z,13.10
2019-04-28T13:59:34.824Z,13.10
2019-04-28T14:02:03.347Z,13.20
2019-04-28T14:04:31.499Z,13.20
2019-04-28T14:06:58.243Z,13.30
2019-04-28T14:09:24.585Z,13.30
2019-04-28T14:11:50.953Z,13.30
2019-04-28T14:14:17.251Z,13.30
2019-04-28T14:16:43.511Z,13.30
2019-04-28T14:19:09.738Z,13.40
2019-04-28T14:21:35.988Z,13.40
2019-04-28T14:24:02.439Z,13.40
2019-04-28T14:26:28.747Z,13.40
2019-04-28T14:28:55.178Z,13.40
2019-04-28T14:31:21.966Z,13.30
2019-04-28T14:33:48.297Z,13.30
2019-04-28T14:36:14.561Z,13.20
2019-04-28T14:38:43.057Z,13.10
2019-04-28T14:41:15.431Z,13.10
2019-04-28T14:43:41.708Z,13.10
2019-04-28T14:46:07.985Z,13.00
2019-04-28T14:48:34.309Z,13.00
2019-04-28T14:51:00.694Z,13.00
2019-04-28T14:53:27.724Z,12.90
2019-04-28T14:55:54.122Z,12.90
2019-04-28T14:58:20.391Z,12.90
2019-04-28T15:00:48.546Z,12.90
2019-04-28T15:03:16.073Z,12.90
2019-04-28T15:05:53.741Z,12.90
2019-04-28T15:08:27.647Z,12.90
2019-04-28T15:10:55.937Z,12.90
2019-04-28T15:13:23.310Z,12.90
2019-04-28T15:15:49.526Z,12.90
2019-04-28T15:18:15.817Z,12.90
2019-04-28T15:20:42.087Z,12.90
2019-04-28T15:23:08.418Z,12.80
2019-04-28T15:25:34.687Z,12.80
2019-04-28T15:28:01.051Z,12.70
2019-04-28T15:30:27.315Z,12.60
2019-04-28T15:32:53.613Z,12.50
2019-04-28T15:35:19.953Z,12.50
2019-04-28T15:37:52.240Z,12.50
2019-04-28T15:40:18.558Z,12.40
2019-04-28T15:42:44.854Z,12.40
2019-04-28T15:45:11.604Z,12.40
2019-04-28T15:47:37.978Z,12.30
2019-04-28T15:50:05.115Z,12.30
2019-04-28T15:52:31.370Z,12.30
2019-04-28T15:54:57.640Z,12.40
2019-04-28T15:57:23.904Z,12.30
2019-04-28T15:59:50.176Z,12.30
2019-04-28T16:02:16.433Z,12.20
2019-04-28T16:04:43.630Z,12.20
2019-04-28T16:07:10.137Z,12.10
2019-04-28T16:09:36.370Z,12.10
2019-04-28T16:12:02.859Z,12.00
2019-04-28T16:14:29.119Z,12.00
2019-04-28T16:16:55.646Z,11.90
2019-04-28T16:19:21.918Z,11.90
2019-04-28T16:21:48.158Z,11.80
2019-04-28T16:24:15.332Z,11.80
2019-04-28T16:26:41.735Z,11.80
2019-04-28T16:29:09.070Z,11.70
2019-04-28T16:31:36.388Z,11.70
2019-04-28T16:34:03.507Z,11.70
2019-04-28T16:36:32.369Z,11.60
2019-04-28T16:38:59.437Z,11.60
2019-04-28T16:41:29.350Z,11.60
2019-04-28T16:43:56.849Z,11.60
2019-04-28T16:46:23.673Z,11.50
2019-04-28T16:48:49.965Z,11.40
2019-04-28T16:51:25.266Z,11.50
2019-04-28T16:53:51.568Z,11.50
2019-04-28T16:56:20.207Z,11.40
2019-04-28T16:59:01.020Z,11.40
2019-04-28T17:01:46.328Z,11.40
2019-04-28T17:04:28.285Z,11.40
2019-04-28T17:06:59.581Z,11.40
2019-04-28T17:09:27.496Z,11.30
2019-04-28T17:11:55.169Z,11.30
2019-04-28T17:14:22.824Z,11.30
2019-04-28T17:16:50.595Z,11.30
2019-04-28T17:19:18.383Z,11.30
2019-04-28T17:21:46.262Z,11.20
2019-04-28T17:24:14.343Z,11.30
2019-04-28T17:26:42.296Z,11.30
2019-04-28T17:29:10.320Z,11.20
2019-04-28T17:31:38.281Z,11.20
2019-04-28T17:34:06.347Z,11.20
2019-04-28T17:36:34.239Z,11.10
2019-04-28T17:39:02.155Z,11.00
2019-04-28T17:41:30.522Z,11.00
2019-04-28T17:43:58.493Z,10.90
2019-04-28T17:46:26.463Z,10.90
2019-04-28T17:49:03.363Z,10.70
2019-04-28T17:51:31.400Z,10.60
2019-04-28T17:53:59.283Z,10.50
2019-04-28T17:56:27.203Z,10.40
2019-04-28T17:58:55.364Z,10.30
2019-04-28T18:01:33.941Z,10.30
2019-04-28T18:04:20.148Z,10.10
2019-04-28T18:06:50.161Z,10.00
2019-04-28T18:09:18.448Z,10.00
2019-04-28T18:11:46.223Z,9.90
2019-04-28T18:14:14.607Z,9.80
2019-04-28T18:19:44.068Z,9.70
2019-04-28T18:22:12.210Z,9.50
2019-04-28T18:24:40.236Z,9.50
2019-04-28T18:27:08.126Z,9.40
2019-04-28T18:29:36.499Z,9.40
2019-04-28T18:32:09.072Z,9.30
2019-04-28T18:34:50.825Z,9.30
2019-04-28T18:37:38.600Z,9.30
2019-04-28T18:40:11.802Z,9.20
2019-04-28T18:42:59.348Z,9.10
2019-04-28T18:45:27.528Z,9.10
2019-04-28T18:47:55.499Z,9.00
2019-04-28T18:50:23.311Z,9.00
2019-04-28T18:52:52.913Z,9.00
2019-04-28T18:55:20.944Z,8.90
2019-04-28T18:57:48.806Z,8.90
2019-04-28T19:00:20.330Z,8.80
2019-04-28T19:02:48.768Z,8.70
2019-04-28T19:05:17.014Z,8.70
2019-04-28T19:07:49.552Z,8.70
2019-04-28T19:10:25.012Z,8.70
2019-04-28T19:13:13.006Z,8.60
2019-04-28T19:15:48.525Z,8.70
2019-04-28T19:18:33.501Z,8.60
2019-04-28T19:21:01.491Z,8.60
2019-04-28T19:23:29.525Z,8.60
2019-04-28T19:25:57.459Z,8.60
2019-04-28T19:28:25.353Z,8.60
2019-04-28T19:30:53.448Z,8.60
2019-04-28T19:33:21.779Z,8.50
2019-04-28T19:35:49.902Z,8.60
2019-04-28T19:38:18.194Z,8.50
2019-04-28T19:40:46.271Z,8.60
2019-04-28T19:43:14.454Z,8.50
2019-04-28T19:45:44.113Z,8.50
2019-04-28T19:48:12.154Z,8.50
2019-04-28T19:50:42.608Z,8.50
2019-04-28T19:53:10.677Z,8.50
2019-04-28T19:55:42.998Z,8.60
2019-04-28T19:58:15.365Z,8.50
2019-04-28T20:00:54.609Z,8.50
2019-04-28T20:03:22.807Z,8.50
2019-04-28T20:05:54.844Z,8.50
2019-04-28T20:08:22.876Z,8.60
2019-04-28T20:10:50.999Z,8.60
2019-04-28T20:13:18.895Z,8.50
2019-04-28T20:15:46.789Z,8.60
2019-04-28T20:18:14.788Z,8.60
2019-04-28T20:20:45.123Z,8.60
2019-04-28T20:23:14.580Z,8.60
2019-04-28T20:25:43.674Z,8.60
2019-04-28T20:28:11.906Z,8.50
2019-04-28T20:30:39.856Z,8.50
2019-04-28T20:33:08.004Z,8.50
2019-04-28T20:35:46.559Z,8.60
2019-04-28T20:38:16.475Z,8.60
2019-04-28T20:40:55.023Z,8.60
2019-04-28T20:43:24.010Z,8.50
2019-04-28T20:45:51.128Z,8.50
2019-04-28T20:48:17.861Z,8.50
2019-04-28T20:50:44.792Z,8.50
2019-04-28T20:53:11.521Z,8.50
2019-04-28T20:58:26.266Z,8.50
2019-04-28T21:00:52.677Z,8.50
2019-04-28T21:03:18.968Z,8.40
2019-04-28T21:05:45.229Z,8.40
2019-04-28T21:08:11.557Z,8.40
2019-04-28T21:10:38.608Z,8.40
2019-04-28T21:13:05.060Z,8.40
2019-04-28T21:15:31.304Z,8.50
2019-04-28T21:17:57.702Z,8.40
2019-04-28T21:20:23.912Z,8.40
2019-04-28T21:22:50.183Z,8.40
2019-04-28T21:25:16.454Z,8.40
2019-04-28T21:27:42.743Z,8.40
2019-04-28T21:30:10.023Z,8.40
2019-04-28T21:32:36.453Z,8.40
2019-04-28T21:35:03.804Z,8.30
2019-04-28T21:37:30.125Z,8.30
2019-04-28T21:39:56.385Z,8.30
2019-04-28T21:42:24.529Z,8.30
2019-04-28T21:45:04.686Z,8.30
2019-04-28T21:47:32.935Z,8.30
2019-04-28T21:49:59.256Z,8.30
2019-04-28T21:52:25.555Z,8.30
2019-04-28T21:54:51.925Z,8.20
2019-04-28T21:57:18.176Z,8.20
2019-04-28T21:59:44.418Z,8.10
2019-04-28T22:02:10.919Z,8.10
2019-04-28T22:04:37.303Z,8.10
2019-04-28T22:07:04.178Z,8.10
2019-04-28T22:09:30.436Z,8.00
2019-04-28T22:11:56.682Z,8.00
2019-04-28T22:14:22.959Z,8.00
2019-04-28T22:16:49.205Z,8.00
2019-04-28T22:19:15.652Z,8.00
2019-04-28T22:21:41.935Z,7.90
2019-04-28T22:24:16.033Z,7.90
2019-04-28T22:26:43.706Z,7.90
2019-04-28T22:29:11.236Z,7.90
2019-04-28T22:31:37.517Z,7.80
2019-04-28T22:34:04.942Z,7.80
2019-04-28T22:36:31.233Z,7.90
2019-04-28T22:38:57.518Z,7.80
2019-04-28T22:41:23.751Z,7.80
2019-04-28T22:43:50.038Z,7.80
2019-04-28T22:46:16.276Z,7.80
2019-04-28T22:48:42.540Z,7.80
2019-04-28T22:51:08.791Z,7.70
2019-04-28T22:53:36.967Z,7.70
2019-04-28T22:56:23.075Z,7.70
2019-04-28T22:59:06.198Z,7.70
2019-04-28T23:01:34.363Z,7.70
2019-04-28T23:04:08.423Z,7.80
2019-04-28T23:06:34.880Z,7.80
2019-04-28T23:09:01.293Z,7.80
2019-04-28T23:11:27.850Z,7.80
2019-04-28T23:13:54.199Z,7.80
2019-04-28T23:16:20.748Z,7.90
2019-04-28T23:18:47.197Z,7.90
2019-04-28T23:21:31.971Z,7.90
2019-04-28T23:23:58.221Z,7.90
2019-04-28T23:26:24.480Z,8.00
2019-04-28T23:28:50.835Z,7.90
2019-04-28T23:31:17.057Z,7.90
2019-04-28T23:33:43.499Z,7.90
2019-04-28T23:36:09.770Z,8.00
2019-04-28T23:38:36.018Z,8.00
2019-04-28T23:41:04.398Z,8.00
2019-04-28T23:43:30.651Z,8.00
2019-04-28T23:45:56.930Z,7.90
2019-04-28T23:48:23.170Z,7.90
2019-04-28T23:51:08.045Z,7.90
2019-04-28T23:53:52.788Z,7.90
2019-04-28T23:56:19.042Z,7.90
2019-04-28T23:58:45.415Z,7.90
